createdAt,value
2019-04-03T00:00:00.423Z,9.30
2019-04-03T00:05:05.076Z,9.10
2019-04-03T00:10:07.409Z,9.00
2019-04-03T00:15:09.842Z,9.00
2019-04-03T00:20:12.375Z,8.90
2019-04-03T00:25:13.854Z,8.80
2019-04-03T00:30:15.802Z,8.80
2019-04-03T00:35:17.298Z,8.90
2019-04-03T00:40:18.827Z,8.90
2019-04-03T00:45:20.301Z,8.90
2019-04-03T00:50:22.115Z,8.90
2019-04-03T00:55:26.229Z,8.90
2019-04-03T01:00:27.428Z,8.90
2019-04-03T01:05:29.089Z,8.90
2019-04-03T01:10:30.819Z,8.80
2019-04-03T01:15:32.291Z,8.70
2019-04-03T01:20:34.575Z,8.60
2019-04-03T01:25:39.138Z,8.40
2019-04-03T01:30:40.980Z,8.20
2019-04-03T01:35:42.893Z,8.10
2019-04-03T01:40:44.395Z,8.00
2019-04-03T01:45:46.031Z,7.90
2019-04-03T01:50:47.841Z,7.80
2019-04-03T01:55:49.719Z,7.80
2019-04-03T02:00:51.490Z,7.80
2019-04-03T02:05:52.959Z,7.80
2019-04-03T02:10:54.540Z,7.80
2019-04-03T02:15:56.050Z,7.70
2019-04-03T02:20:58.148Z,7.70
2019-04-03T02:26:00.740Z,7.60
2019-04-03T02:31:04.907Z,7.60
2019-04-03T02:36:06.654Z,7.60
2019-04-03T02:41:08.187Z,7.70
2019-04-03T02:46:09.752Z,7.60
2019-04-03T02:51:11.318Z,7.60
2019-04-03T02:56:13.826Z,7.60
2019-04-03T03:01:15.698Z,7.60
2019-04-03T03:06:17.445Z,7.50
2019-04-03T03:11:23.238Z,7.60
2019-04-03T03:16:26.008Z,7.50
2019-04-03T03:21:28.491Z,7.50
2019-04-03T03:26:30.370Z,7.40
2019-04-03T03:32:00.321Z,7.30
2019-04-03T03:36:36.241Z,7.30
2019-04-03T03:41:38.933Z,7.30
2019-04-03T03:46:40.746Z,7.10
2019-04-03T03:51:43.836Z,7.00
2019-04-03T03:56:45.322Z,6.90
2019-04-03T04:01:47.991Z,6.80
2019-04-03T04:06:49.484Z,6.80
2019-04-03T04:11:51.108Z,6.70
2019-04-03T04:16:54.451Z,6.70
2019-04-03T04:21:56.520Z,6.60
2019-04-03T04:26:58.757Z,6.60
2019-04-03T04:32:00.406Z,6.70
2019-04-03T04:37:03.019Z,6.60
2019-04-03T04:42:05.049Z,6.70
2019-04-03T04:47:07.219Z,6.60
2019-04-03T04:52:08.954Z,6.70
2019-04-03T04:57:10.676Z,6.80
2019-04-03T05:02:12.166Z,6.90
2019-04-03T05:07:16.392Z,6.90
2019-04-03T05:12:17.448Z,6.90
2019-04-03T05:17:19.097Z,7.00
2019-04-03T05:22:23.229Z,7.10
2019-04-03T05:27:24.822Z,7.30
2019-04-03T05:32:26.371Z,7.30
2019-04-03T05:37:28.061Z,7.40
2019-04-03T05:42:30.003Z,7.60
2019-04-03T05:47:31.456Z,7.60
2019-04-03T05:52:33.165Z,7.70
2019-04-03T05:57:36.374Z,7.70
2019-04-03T06:02:37.871Z,7.80
2019-04-03T06:07:39.535Z,7.90
2019-04-03T06:12:41.107Z,8.00
2019-04-03T06:17:42.598Z,8.10
2019-04-03T06:22:44.094Z,8.20
2019-04-03T06:27:46.423Z,8.30
2019-04-03T06:32:48.712Z,8.40
2019-04-03T06:37:51.390Z,8.50
2019-04-03T06:42:54.359Z,8.60
2019-04-03T06:47:55.782Z,8.70
2019-04-03T06:52:57.686Z,8.70
2019-04-03T06:57:59.536Z,8.80
2019-04-03T07:03:01.515Z,9.00
2019-04-03T07:08:05.907Z,9.30
2019-04-03T07:13:07.776Z,9.40
2019-04-03T07:18:09.232Z,9.60
2019-04-03T07:23:11.028Z,9.80
2019-04-03T07:28:12.538Z,10.00
2019-04-03T07:33:16.503Z,10.20
2019-04-03T07:38:22.150Z,10.30
2019-04-03T07:43:26.151Z,10.60
2019-04-03T07:48:27.336Z,10.70
2019-04-03T07:53:28.909Z,10.90
2019-04-03T07:58:31.884Z,11.30
2019-04-03T08:03:33.748Z,11.50
2019-04-03T08:08:35.585Z,11.60
2019-04-03T08:13:38.419Z,11.80
2019-04-03T08:18:40.010Z,11.80
2019-04-03T08:23:41.855Z,11.90
2019-04-03T08:28:43.616Z,12.10
2019-04-03T08:33:45.313Z,12.30
2019-04-03T08:38:46.846Z,12.70
2019-04-03T08:43:48.723Z,12.90
2019-04-03T08:48:50.760Z,13.30
2019-04-03T08:53:54.344Z,13.50
2019-04-03T08:58:57.340Z,13.70
2019-04-03T09:03:59.201Z,13.70
2019-04-03T09:09:00.778Z,13.90
2019-04-03T09:14:02.351Z,13.90
2019-04-03T09:19:03.987Z,14.00
2019-04-03T09:24:06.061Z,14.50
2019-04-03T09:29:12.629Z,14.80
2019-04-03T09:34:13.523Z,15.10
2019-04-03T09:39:15.191Z,15.50
2019-04-03T09:44:16.636Z,15.60
2019-04-03T09:49:18.117Z,16.00
2019-04-03T09:54:19.932Z,15.80
2019-04-03T09:59:21.407Z,16.30
2019-04-03T10:04:25.369Z,16.70
2019-04-03T10:09:26.393Z,17.00
2019-04-03T10:14:28.929Z,17.00
2019-04-03T10:19:30.522Z,17.00
2019-04-03T10:24:32.294Z,17.30
2019-04-03T10:29:34.302Z,17.60
2019-04-03T10:34:36.231Z,17.60
2019-04-03T10:39:40.991Z,18.00
2019-04-03T10:44:41.557Z,18.10
2019-04-03T10:49:43.023Z,18.10
2019-04-03T10:54:44.659Z,18.20
2019-04-03T10:59:46.234Z,18.00
2019-04-03T11:04:48.768Z,18.20
2019-04-03T11:09:50.604Z,18.60
2019-04-03T11:14:52.160Z,19.30
2019-04-03T11:19:53.917Z,19.00
2019-04-03T11:24:55.423Z,19.50
2019-04-03T11:29:57.273Z,19.20
2019-04-03T11:34:58.805Z,19.40
2019-04-03T11:40:04.706Z,19.20
2019-04-03T11:45:06.908Z,19.10
2019-04-03T11:50:12.363Z,19.70
2019-04-03T11:55:14.543Z,19.80
2019-04-03T12:00:21.448Z,19.50
2019-04-03T12:05:23.032Z,20.00
2019-04-03T12:10:26.066Z,20.00
2019-04-03T12:15:28.097Z,19.90
2019-04-03T12:20:29.723Z,19.70
2019-04-03T12:25:34.308Z,19.90
2019-04-03T12:30:35.796Z,19.80
2019-04-03T12:35:40.685Z,20.30
2019-04-03T12:40:41.263Z,20.00
2019-04-03T12:45:42.730Z,20.00
2019-04-03T12:50:44.640Z,19.90
2019-04-03T12:55:46.595Z,19.80
2019-04-03T13:00:49.073Z,19.80
2019-04-03T13:05:50.740Z,20.40
2019-04-03T13:10:52.349Z,20.10
2019-04-03T13:15:53.902Z,20.50
2019-04-03T13:20:55.484Z,20.10
2019-04-03T13:25:57.452Z,19.70
2019-04-03T13:30:59.045Z,19.00
2019-04-03T13:36:00.628Z,19.20
2019-04-03T13:41:04.624Z,19.40
2019-04-03T13:46:05.852Z,19.80
2019-04-03T13:51:07.393Z,20.10
2019-04-03T13:56:11.167Z,20.60
2019-04-03T14:01:12.699Z,21.40
2019-04-03T14:06:14.594Z,21.60
2019-04-03T14:11:16.467Z,21.20
2019-04-03T14:16:21.666Z,20.70
2019-04-03T14:21:21.362Z,19.70
2019-04-03T14:26:22.852Z,19.70
2019-04-03T14:31:34.852Z,19.80
2019-04-03T14:36:28.959Z,19.70
2019-04-03T14:41:30.920Z,19.70
2019-04-03T14:46:32.494Z,19.60
2019-04-03T14:51:34.215Z,19.30
2019-04-03T14:56:36.226Z,19.30
2019-04-03T15:01:38.457Z,19.00
2019-04-03T15:06:40.246Z,19.00
2019-04-03T15:11:41.863Z,19.00
2019-04-03T15:16:43.341Z,18.90
2019-04-03T15:21:45.292Z,18.90
2019-04-03T15:26:47.007Z,19.00
2019-04-03T15:31:48.583Z,19.10
2019-04-03T15:36:51.549Z,19.10
2019-04-03T15:41:54.102Z,19.10
2019-04-03T15:46:56.137Z,19.30
2019-04-03T15:51:58.089Z,19.30
2019-04-03T15:56:59.953Z,19.40
2019-04-03T16:02:02.051Z,19.40
2019-04-03T16:07:05.109Z,19.40
2019-04-03T16:12:07.905Z,19.40
2019-04-03T16:17:10.258Z,19.20
2019-04-03T16:22:11.786Z,19.20
2019-04-03T16:27:13.258Z,18.90
2019-04-03T16:32:15.036Z,18.60
2019-04-03T16:37:16.915Z,18.40
2019-04-03T16:42:18.479Z,18.20
2019-04-03T16:47:20.059Z,18.10
2019-04-03T16:52:22.179Z,17.90
2019-04-03T16:57:24.115Z,17.60
2019-04-03T17:02:27.876Z,17.50
2019-04-03T17:07:30.435Z,17.40
2019-04-03T17:12:32.202Z,17.30
2019-04-03T17:17:35.478Z,17.20
2019-04-03T17:22:40.848Z,17.00
2019-04-03T17:27:54.088Z,16.80
2019-04-03T17:32:52.100Z,16.50
2019-04-03T17:37:54.073Z,16.20
2019-04-03T17:42:55.566Z,16.10
2019-04-03T17:47:57.369Z,15.70
2019-04-03T17:52:58.899Z,15.40
2019-04-03T17:58:00.363Z,15.40
2019-04-03T18:03:01.855Z,15.40
2019-04-03T18:08:03.423Z,15.30
2019-04-03T18:13:04.987Z,14.90
2019-04-03T18:18:06.585Z,14.80
2019-04-03T18:23:10.587Z,14.60
2019-04-03T18:28:11.861Z,14.40
2019-04-03T18:33:16.684Z,14.20
2019-04-03T18:38:17.102Z,14.10
2019-04-03T18:43:21.597Z,14.00
2019-04-03T18:48:22.391Z,13.90
2019-04-03T18:53:24.145Z,14.00
2019-04-03T18:58:25.663Z,14.00
2019-04-03T19:03:27.538Z,13.80
2019-04-03T19:08:29.504Z,13.80
2019-04-03T19:13:31.081Z,14.00
2019-04-03T19:18:32.669Z,14.20
2019-04-03T19:23:34.435Z,14.10
2019-04-03T19:28:36.162Z,14.10
2019-04-03T19:33:37.667Z,14.20
2019-04-03T19:38:39.616Z,14.20
2019-04-03T19:43:41.590Z,13.90
2019-04-03T19:48:43.263Z,13.90
2019-04-03T19:53:53.610Z,13.70
2019-04-03T19:58:48.580Z,13.80
2019-04-03T20:03:50.152Z,13.70
2019-04-03T20:09:11.611Z,13.60
2019-04-03T20:14:13.161Z,13.50
2019-04-03T20:19:15.919Z,13.30
2019-04-03T20:24:17.685Z,13.40
2019-04-03T20:29:19.209Z,13.30
2019-04-03T20:34:21.131Z,13.20
2019-04-03T20:39:22.652Z,13.10
2019-04-03T20:44:24.108Z,13.00
2019-04-03T20:49:25.586Z,12.90
2019-04-03T20:54:27.238Z,12.70
2019-04-03T20:59:30.154Z,12.60
2019-04-03T21:04:32.287Z,12.50
2019-04-03T21:09:33.787Z,12.40
2019-04-03T21:14:35.279Z,12.50
2019-04-03T21:19:36.825Z,12.40
2019-04-03T21:24:38.665Z,12.20
2019-04-03T21:29:40.140Z,12.10
2019-04-03T21:34:42.934Z,11.90
2019-04-03T21:39:44.535Z,11.90
2019-04-03T21:44:46.025Z,11.70
2019-04-03T21:49:48.176Z,11.70
2019-04-03T21:54:49.867Z,11.60
2019-04-03T21:59:51.335Z,11.60
2019-04-03T22:04:54.027Z,11.60
2019-04-03T22:09:56.059Z,11.60
2019-04-03T22:14:58.139Z,11.60
2019-04-03T22:19:59.656Z,11.50
2019-04-03T22:25:01.211Z,11.60
2019-04-03T22:30:04.795Z,11.40
2019-04-03T22:35:06.358Z,11.40
2019-04-03T22:40:10.090Z,11.30
2019-04-03T22:45:11.431Z,11.30
2019-04-03T22:50:13.255Z,11.30
2019-04-03T22:55:15.510Z,11.30
2019-04-03T23:00:17.375Z,11.30
2019-04-03T23:05:18.881Z,11.20
2019-04-03T23:10:20.355Z,11.20
2019-04-03T23:15:22.188Z,11.30
2019-04-03T23:20:23.683Z,11.40
2019-04-03T23:25:25.132Z,11.30
2019-04-03T23:30:26.597Z,11.30
2019-04-03T23:35:28.072Z,11.20
2019-04-03T23:40:29.655Z,11.10
2019-04-03T23:45:31.604Z,11.10
2019-04-03T23:50:33.075Z,11.10
2019-04-03T23:55:36.241Z,11.20
